sensor_id;sensor_type;location;lat;lon;timestamp;P1;durP1;ratioP1;P2;durP2;ratioP2
33074;SDS011;19433;51.292;6.868;2022-09-01T00:01:22;1.20;;;1.10;;
33074;SDS011;19433;51.292;6.868;2022-09-01T00:03:50;1.40;;;1.30;;
33074;SDS011;19433;51.292;6.868;2022-09-01T00:06:20;2.30;;;1.30;;
33074;SDS011;19433;51.292;6.868;2022-09-01T00:08:51;2.20;;;0.93;;
33074;SDS011;19433;51.292;6.868;2022-09-01T00:11:18;1.40;;;1.20;;
33074;SDS011;19433;51.292;6.868;2022-09-01T00:13:45;3.30;;;1.30;;
33074;SDS011;19433;51.292;6.868;2022-09-01T00:16:12;1.00;;;0.90;;
33074;SDS011;19433;51.292;6.868;2022-09-01T00:18:40;1.20;;;1.10;;
33074;SDS011;19433;51.292;6.868;2022-09-01T00:21:09;1.13;;;1.13;;
33074;SDS011;19433;51.292;6.868;2022-09-01T00:23:35;1.30;;;1.20;;
33074;SDS011;19433;51.292;6.868;2022-09-01T00:26:01;1.47;;;1.27;;
33074;SDS011;19433;51.292;6.868;2022-09-01T00:28:26;2.20;;;1.20;;
33074;SDS011;19433;51.292;6.868;2022-09-01T00:30:51;1.50;;;1.40;;
33074;SDS011;19433;51.292;6.868;2022-09-01T00:33:17;1.20;;;1.20;;
33074;SDS011;19433;51.292;6.868;2022-09-01T00:35:43;1.07;;;1.03;;
33074;SDS011;19433;51.292;6.868;2022-09-01T00:38:08;1.40;;;1.30;;
33074;SDS011;19433;51.292;6.868;2022-09-01T00:40:33;2.00;;;1.57;;
33074;SDS011;19433;51.292;6.868;2022-09-01T00:42:59;1.30;;;1.20;;
33074;SDS011;19433;51.292;6.868;2022-09-01T00:45:24;1.47;;;1.37;;
33074;SDS011;19433;51.292;6.868;2022-09-01T00:47:50;1.67;;;1.10;;
33074;SDS011;19433;51.292;6.868;2022-09-01T00:50:16;1.37;;;1.27;;
33074;SDS011;19433;51.292;6.868;2022-09-01T00:52:49;0.93;;;0.93;;
33074;SDS011;19433;51.292;6.868;2022-09-01T00:55:22;2.07;;;1.60;;
33074;SDS011;19433;51.292;6.868;2022-09-01T00:57:51;1.43;;;1.33;;
33074;SDS011;19433;51.292;6.868;2022-09-01T01:00:17;1.40;;;1.30;;
33074;SDS011;19433;51.292;6.868;2022-09-01T01:02:46;1.60;;;1.50;;
33074;SDS011;19433;51.292;6.868;2022-09-01T01:05:12;1.60;;;1.50;;
33074;SDS011;19433;51.292;6.868;2022-09-01T01:07:39;1.30;;;1.27;;
33074;SDS011;19433;51.292;6.868;2022-09-01T01:10:09;1.90;;;1.63;;
33074;SDS011;19433;51.292;6.868;2022-09-01T01:12:39;1.50;;;1.40;;
33074;SDS011;19433;51.292;6.868;2022-09-01T01:15:06;1.57;;;1.47;;
33074;SDS011;19433;51.292;6.868;2022-09-01T01:17:32;1.40;;;1.20;;
33074;SDS011;19433;51.292;6.868;2022-09-01T01:19:58;1.43;;;1.20;;
33074;SDS011;19433;51.292;6.868;2022-09-01T01:30:45;1.43;;;1.30;;
33074;SDS011;19433;51.292;6.868;2022-09-01T01:33:20;1.37;;;1.27;;
33074;SDS011;19433;51.292;6.868;2022-09-01T01:35:51;1.87;;;1.40;;
33074;SDS011;19433;51.292;6.868;2022-09-01T01:38:17;1.50;;;1.40;;
33074;SDS011;19433;51.292;6.868;2022-09-01T01:40:46;1.43;;;1.33;;
33074;SDS011;19433;51.292;6.868;2022-09-01T01:43:12;4.83;;;1.10;;
33074;SDS011;19433;51.292;6.868;2022-09-01T01:45:47;1.30;;;1.20;;
33074;SDS011;19433;51.292;6.868;2022-09-01T01:48:16;1.40;;;1.30;;
33074;SDS011;19433;51.292;6.868;2022-09-01T01:50:47;1.70;;;1.43;;
33074;SDS011;19433;51.292;6.868;2022-09-01T01:53:13;1.30;;;1.20;;
33074;SDS011;19433;51.292;6.868;2022-09-01T01:55:42;1.27;;;1.20;;
33074;SDS011;19433;51.292;6.868;2022-09-01T01:58:08;1.10;;;1.10;;
33074;SDS011;19433;51.292;6.868;2022-09-01T02:00:36;1.50;;;1.40;;
33074;SDS011;19433;51.292;6.868;2022-09-01T02:03:02;1.20;;;1.20;;
33074;SDS011;19433;51.292;6.868;2022-09-01T02:05:29;1.50;;;1.40;;
33074;SDS011;19433;51.292;6.868;2022-09-01T02:08:00;3.17;;;1.40;;
33074;SDS011;19433;51.292;6.868;2022-09-01T02:10:30;1.53;;;1.43;;
33074;SDS011;19433;51.292;6.868;2022-09-01T02:12:57;1.13;;;1.13;;
33074;SDS011;19433;51.292;6.868;2022-09-01T02:15:29;2.20;;;1.20;;
33074;SDS011;19433;51.292;6.868;2022-09-01T02:17:56;2.03;;;1.17;;
33074;SDS011;19433;51.292;6.868;2022-09-01T02:20:24;1.30;;;1.20;;
33074;SDS011;19433;51.292;6.868;2022-09-01T02:22:54;1.37;;;1.27;;
33074;SDS011;19433;51.292;6.868;2022-09-01T02:25:20;1.57;;;1.40;;
33074;SDS011;19433;51.292;6.868;2022-09-01T02:27:46;2.50;;;1.40;;
33074;SDS011;19433;51.292;6.868;2022-09-01T02:30:15;1.50;;;1.40;;
33074;SDS011;19433;51.292;6.868;2022-09-01T02:32:40;1.40;;;1.30;;
33074;SDS011;19433;51.292;6.868;2022-09-01T02:35:20;3.23;;;1.30;;
33074;SDS011;19433;51.292;6.868;2022-09-01T02:37:45;1.97;;;1.50;;
33074;SDS011;19433;51.292;6.868;2022-09-01T02:40:13;1.20;;;1.10;;
33074;SDS011;19433;51.292;6.868;2022-09-01T02:42:39;1.50;;;1.40;;
33074;SDS011;19433;51.292;6.868;2022-09-01T02:45:07;1.80;;;1.10;;
33074;SDS011;19433;51.292;6.868;2022-09-01T02:47:36;1.97;;;1.40;;
33074;SDS011;19433;51.292;6.868;2022-09-01T02:50:05;1.83;;;1.73;;
33074;SDS011;19433;51.292;6.868;2022-09-01T02:52:30;1.90;;;1.80;;
33074;SDS011;19433;51.292;6.868;2022-09-01T02:55:01;1.70;;;1.60;;
33074;SDS011;19433;51.292;6.868;2022-09-01T02:57:27;1.37;;;1.30;;
33074;SDS011;19433;51.292;6.868;2022-09-01T02:59:53;1.30;;;1.30;;
33074;SDS011;19433;51.292;6.868;2022-09-01T03:02:22;1.83;;;1.73;;
33074;SDS011;19433;51.292;6.868;2022-09-01T03:04:53;1.77;;;1.67;;
33074;SDS011;19433;51.292;6.868;2022-09-01T03:07:19;1.43;;;1.33;;
33074;SDS011;19433;51.292;6.868;2022-09-01T03:09:48;1.67;;;1.57;;
33074;SDS011;19433;51.292;6.868;2022-09-01T03:12:13;2.13;;;1.50;;
33074;SDS011;19433;51.292;6.868;2022-09-01T03:14:39;1.57;;;1.47;;
33074;SDS011;19433;51.292;6.868;2022-09-01T03:17:04;2.20;;;1.53;;
33074;SDS011;19433;51.292;6.868;2022-09-01T03:19:30;1.77;;;1.67;;
33074;SDS011;19433;51.292;6.868;2022-09-01T03:22:04;1.90;;;1.20;;
33074;SDS011;19433;51.292;6.868;2022-09-01T03:24:30;3.07;;;1.50;;
33074;SDS011;19433;51.292;6.868;2022-09-01T03:26:56;1.07;;;1.03;;
33074;SDS011;19433;51.292;6.868;2022-09-01T03:29:21;1.40;;;1.30;;
33074;SDS011;19433;51.292;6.868;2022-09-01T03:31:46;1.70;;;1.60;;
33074;SDS011;19433;51.292;6.868;2022-09-01T03:34:12;1.27;;;1.00;;
33074;SDS011;19433;51.292;6.868;2022-09-01T03:36:38;3.43;;;1.20;;
33074;SDS011;19433;51.292;6.868;2022-09-01T03:39:03;1.73;;;1.63;;
33074;SDS011;19433;51.292;6.868;2022-09-01T03:41:29;1.60;;;1.50;;
33074;SDS011;19433;51.292;6.868;2022-09-01T03:43:55;1.90;;;1.77;;
33074;SDS011;19433;51.292;6.868;2022-09-01T03:46:25;2.13;;;1.30;;
33074;SDS011;19433;51.292;6.868;2022-09-01T03:48:52;1.53;;;1.43;;
33074;SDS011;19433;51.292;6.868;2022-09-01T03:51:24;1.40;;;1.30;;
33074;SDS011;19433;51.292;6.868;2022-09-01T03:53:52;1.80;;;1.70;;
33074;SDS011;19433;51.292;6.868;2022-09-01T03:56:22;2.40;;;1.43;;
33074;SDS011;19433;51.292;6.868;2022-09-01T03:58:51;1.83;;;1.73;;
33074;SDS011;19433;51.292;6.868;2022-09-01T04:01:18;2.20;;;2.00;;
33074;SDS011;19433;51.292;6.868;2022-09-01T04:03:44;1.83;;;1.73;;
33074;SDS011;19433;51.292;6.868;2022-09-01T04:06:11;2.60;;;1.80;;
33074;SDS011;19433;51.292;6.868;2022-09-01T04:08:37;2.10;;;1.90;;
33074;SDS011;19433;51.292;6.868;2022-09-01T04:11:08;2.43;;;1.53;;
33074;SDS011;19433;51.292;6.868;2022-09-01T04:13:38;2.30;;;2.03;;
33074;SDS011;19433;51.292;6.868;2022-09-01T04:16:05;2.43;;;1.83;;
33074;SDS011;19433;51.292;6.868;2022-09-01T04:18:34;1.87;;;1.73;;
33074;SDS011;19433;51.292;6.868;2022-09-01T04:21:00;1.67;;;1.57;;
33074;SDS011;19433;51.292;6.868;2022-09-01T04:23:27;2.40;;;2.20;;
33074;SDS011;19433;51.292;6.868;2022-09-01T04:28:41;1.77;;;1.67;;
33074;SDS011;19433;51.292;6.868;2022-09-01T04:31:13;1.63;;;1.53;;
33074;SDS011;19433;51.292;6.868;2022-09-01T04:33:42;2.23;;;2.03;;
33074;SDS011;19433;51.292;6.868;2022-09-01T04:36:18;1.93;;;1.50;;
33074;SDS011;19433;51.292;6.868;2022-09-01T04:38:52;2.17;;;2.00;;
33074;SDS011;19433;51.292;6.868;2022-09-01T04:41:20;1.80;;;1.70;;
33074;SDS011;19433;51.292;6.868;2022-09-01T04:43:47;1.80;;;1.70;;
33074;SDS011;19433;51.292;6.868;2022-09-01T04:46:16;1.87;;;1.60;;
33074;SDS011;19433;51.292;6.868;2022-09-01T04:48:43;2.47;;;2.00;;
33074;SDS011;19433;51.292;6.868;2022-09-01T04:51:09;2.10;;;1.63;;
33074;SDS011;19433;51.292;6.868;2022-09-01T04:53:36;1.80;;;1.70;;
33074;SDS011;19433;51.292;6.868;2022-09-01T04:56:03;2.83;;;2.10;;
33074;SDS011;19433;51.292;6.868;2022-09-01T04:58:29;2.07;;;1.87;;
33074;SDS011;19433;51.292;6.868;2022-09-01T05:00:54;2.50;;;2.30;;
33074;SDS011;19433;51.292;6.868;2022-09-01T05:03:20;1.50;;;1.40;;
33074;SDS011;19433;51.292;6.868;2022-09-01T05:05:47;2.40;;;1.80;;
33074;SDS011;19433;51.292;6.868;2022-09-01T05:08:15;2.30;;;1.80;;
33074;SDS011;19433;51.292;6.868;2022-09-01T05:10:44;2.43;;;1.63;;
33074;SDS011;19433;51.292;6.868;2022-09-01T05:13:13;2.20;;;2.00;;
33074;SDS011;19433;51.292;6.868;2022-09-01T05:15:42;1.90;;;1.80;;
33074;SDS011;19433;51.292;6.868;2022-09-01T05:18:15;2.20;;;1.80;;
33074;SDS011;19433;51.292;6.868;2022-09-01T05:20:47;1.60;;;1.50;;
33074;SDS011;19433;51.292;6.868;2022-09-01T05:23:14;2.73;;;2.10;;
33074;SDS011;19433;51.292;6.868;2022-09-01T05:25:43;4.57;;;2.47;;
33074;SDS011;19433;51.292;6.868;2022-09-01T05:28:10;2.27;;;1.80;;
33074;SDS011;19433;51.292;6.868;2022-09-01T05:30:37;1.73;;;1.63;;
33074;SDS011;19433;51.292;6.868;2022-09-01T05:33:04;2.00;;;1.90;;
33074;SDS011;19433;51.292;6.868;2022-09-01T05:35:36;1.60;;;1.50;;
33074;SDS011;19433;51.292;6.868;2022-09-01T05:38:07;2.00;;;1.90;;
33074;SDS011;19433;51.292;6.868;2022-09-01T05:40:37;1.53;;;1.43;;
33074;SDS011;19433;51.292;6.868;2022-09-01T05:43:05;2.00;;;1.80;;
33074;SDS011;19433;51.292;6.868;2022-09-01T05:45:34;1.77;;;1.60;;
33074;SDS011;19433;51.292;6.868;2022-09-01T05:48:00;1.90;;;1.80;;
33074;SDS011;19433;51.292;6.868;2022-09-01T05:50:27;1.57;;;1.47;;
33074;SDS011;19433;51.292;6.868;2022-09-01T05:52:52;1.63;;;1.53;;
33074;SDS011;19433;51.292;6.868;2022-09-01T05:55:17;1.80;;;1.70;;
33074;SDS011;19433;51.292;6.868;2022-09-01T05:57:43;2.30;;;2.07;;
33074;SDS011;19433;51.292;6.868;2022-09-01T06:00:12;3.80;;;2.03;;
33074;SDS011;19433;51.292;6.868;2022-09-01T06:02:37;2.20;;;1.60;;
33074;SDS011;19433;51.292;6.868;2022-09-01T06:05:04;1.63;;;1.53;;
33074;SDS011;19433;51.292;6.868;2022-09-01T06:07:30;2.30;;;2.00;;
33074;SDS011;19433;51.292;6.868;2022-09-01T06:09:56;1.67;;;1.30;;
33074;SDS011;19433;51.292;6.868;2022-09-01T06:12:21;1.70;;;1.60;;
33074;SDS011;19433;51.292;6.868;2022-09-01T06:14:48;1.90;;;1.80;;
33074;SDS011;19433;51.292;6.868;2022-09-01T06:17:15;3.43;;;2.33;;
33074;SDS011;19433;51.292;6.868;2022-09-01T06:19:46;1.70;;;1.60;;
33074;SDS011;19433;51.292;6.868;2022-09-01T06:22:12;1.60;;;1.50;;
33074;SDS011;19433;51.292;6.868;2022-09-01T06:24:38;1.73;;;1.57;;
33074;SDS011;19433;51.292;6.868;2022-09-01T06:27:07;1.77;;;1.67;;
33074;SDS011;19433;51.292;6.868;2022-09-01T06:29:36;4.93;;;1.87;;
33074;SDS011;19433;51.292;6.868;2022-09-01T06:32:06;7.73;;;1.60;;
33074;SDS011;19433;51.292;6.868;2022-09-01T06:34:33;5.20;;;1.80;;
33074;SDS011;19433;51.292;6.868;2022-09-01T06:37:00;1.70;;;1.60;;
33074;SDS011;19433;51.292;6.868;2022-09-01T06:39:25;1.57;;;1.47;;
33074;SDS011;19433;51.292;6.868;2022-09-01T06:41:50;2.73;;;1.77;;
33074;SDS011;19433;51.292;6.868;2022-09-01T06:44:19;1.77;;;1.67;;
33074;SDS011;19433;51.292;6.868;2022-09-01T06:46:50;1.60;;;1.10;;
33074;SDS011;19433;51.292;6.868;2022-09-01T06:49:16;1.60;;;1.30;;
33074;SDS011;19433;51.292;6.868;2022-09-01T06:51:42;3.13;;;1.30;;
33074;SDS011;19433;51.292;6.868;2022-09-01T06:54:08;1.93;;;1.47;;
33074;SDS011;19433;51.292;6.868;2022-09-01T06:56:36;2.30;;;1.10;;
33074;SDS011;19433;51.292;6.868;2022-09-01T06:59:01;2.20;;;1.70;;
33074;SDS011;19433;51.292;6.868;2022-09-01T07:01:30;0.90;;;0.90;;
33074;SDS011;19433;51.292;6.868;2022-09-01T07:03:55;2.50;;;1.40;;
33074;SDS011;19433;51.292;6.868;2022-09-01T07:06:22;2.03;;;1.13;;
33074;SDS011;19433;51.292;6.868;2022-09-01T07:08:54;0.90;;;0.90;;
33074;SDS011;19433;51.292;6.868;2022-09-01T07:11:25;2.93;;;1.00;;
33074;SDS011;19433;51.292;6.868;2022-09-01T07:13:57;4.20;;;1.13;;
33074;SDS011;19433;51.292;6.868;2022-09-01T07:16:26;1.37;;;1.27;;
33074;SDS011;19433;51.292;6.868;2022-09-01T07:18:54;1.70;;;1.60;;
33074;SDS011;19433;51.292;6.868;2022-09-01T07:21:22;2.10;;;1.20;;
33074;SDS011;19433;51.292;6.868;2022-09-01T07:23:48;1.00;;;1.00;;
33074;SDS011;19433;51.292;6.868;2022-09-01T07:26:13;2.33;;;1.33;;
33074;SDS011;19433;51.292;6.868;2022-09-01T07:28:43;1.10;;;1.00;;
33074;SDS011;19433;51.292;6.868;2022-09-01T07:31:15;2.17;;;1.70;;
33074;SDS011;19433;51.292;6.868;2022-09-01T07:33:44;4.63;;;1.23;;
33074;SDS011;19433;51.292;6.868;2022-09-01T07:36:12;2.30;;;1.10;;
33074;SDS011;19433;51.292;6.868;2022-09-01T07:38:38;2.20;;;1.23;;
33074;SDS011;19433;51.292;6.868;2022-09-01T07:41:04;1.73;;;1.13;;
33074;SDS011;19433;51.292;6.868;2022-09-01T07:43:29;1.10;;;1.00;;
33074;SDS011;19433;51.292;6.868;2022-09-01T07:45:56;0.90;;;0.87;;
33074;SDS011;19433;51.292;6.868;2022-09-01T07:48:24;1.50;;;1.10;;
33074;SDS011;19433;51.292;6.868;2022-09-01T07:50:52;2.17;;;1.30;;
33074;SDS011;19433;51.292;6.868;2022-09-01T07:53:30;1.67;;;1.30;;
33074;SDS011;19433;51.292;6.868;2022-09-01T07:55:59;0.90;;;0.90;;
33074;SDS011;19433;51.292;6.868;2022-09-01T07:58:32;1.07;;;1.00;;
33074;SDS011;19433;51.292;6.868;2022-09-01T08:00:57;0.90;;;0.80;;
33074;SDS011;19433;51.292;6.868;2022-09-01T08:03:26;2.30;;;1.00;;
33074;SDS011;19433;51.292;6.868;2022-09-01T08:05:52;1.10;;;1.00;;
33074;SDS011;19433;51.292;6.868;2022-09-01T08:08:21;0.70;;;0.70;;
33074;SDS011;19433;51.292;6.868;2022-09-01T08:10:48;1.43;;;0.73;;
33074;SDS011;19433;51.292;6.868;2022-09-01T08:13:14;1.63;;;0.93;;
33074;SDS011;19433;51.292;6.868;2022-09-01T08:15:40;1.53;;;0.80;;
33074;SDS011;19433;51.292;6.868;2022-09-01T08:18:06;2.07;;;0.83;;
33074;SDS011;19433;51.292;6.868;2022-09-01T08:20:33;1.50;;;1.03;;
33074;SDS011;19433;51.292;6.868;2022-09-01T08:23:03;1.10;;;1.00;;
33074;SDS011;19433;51.292;6.868;2022-09-01T08:25:30;1.07;;;0.70;;
33074;SDS011;19433;51.292;6.868;2022-09-01T08:27:57;2.30;;;1.00;;
33074;SDS011;19433;51.292;6.868;2022-09-01T08:30:23;1.50;;;0.80;;
33074;SDS011;19433;51.292;6.868;2022-09-01T08:32:50;0.80;;;0.70;;
33074;SDS011;19433;51.292;6.868;2022-09-01T08:35:17;1.70;;;0.80;;
33074;SDS011;19433;51.292;6.868;2022-09-01T08:37:42;0.77;;;0.77;;
33074;SDS011;19433;51.292;6.868;2022-09-01T08:40:10;0.90;;;0.90;;
33074;SDS011;19433;51.292;6.868;2022-09-01T08:42:58;3.37;;;0.77;;
33074;SDS011;19433;51.292;6.868;2022-09-01T08:46:08;0.77;;;0.77;;
33074;SDS011;19433;51.292;6.868;2022-09-01T08:48:43;1.67;;;0.90;;
33074;SDS011;19433;51.292;6.868;2022-09-01T08:54:28;1.30;;;0.80;;
33074;SDS011;19433;51.292;6.868;2022-09-01T08:56:34;0.80;;;0.80;;
33074;SDS011;19433;51.292;6.868;2022-09-01T08:59:01;1.20;;;0.80;;
33074;SDS011;19433;51.292;6.868;2022-09-01T09:01:35;3.37;;;0.90;;
33074;SDS011;19433;51.292;6.868;2022-09-01T09:09:44;0.70;;;0.70;;
33074;SDS011;19433;51.292;6.868;2022-09-01T09:12:38;0.90;;;0.80;;
33074;SDS011;19433;51.292;6.868;2022-09-01T09:18:11;0.70;;;0.70;;
33074;SDS011;19433;51.292;6.868;2022-09-01T09:20:44;1.27;;;1.00;;
33074;SDS011;19433;51.292;6.868;2022-09-01T09:23:31;1.07;;;0.67;;
33074;SDS011;19433;51.292;6.868;2022-09-01T09:25:58;1.13;;;0.67;;
33074;SDS011;19433;51.292;6.868;2022-09-01T09:28:23;2.30;;;1.17;;
33074;SDS011;19433;51.292;6.868;2022-09-01T09:30:48;0.60;;;0.60;;
33074;SDS011;19433;51.292;6.868;2022-09-01T09:33:34;0.90;;;0.90;;
33074;SDS011;19433;51.292;6.868;2022-09-01T09:36:18;4.67;;;0.80;;
33074;SDS011;19433;51.292;6.868;2022-09-01T09:39:03;1.00;;;0.73;;
33074;SDS011;19433;51.292;6.868;2022-09-01T09:41:40;1.33;;;0.90;;
33074;SDS011;19433;51.292;6.868;2022-09-01T09:46:53;0.90;;;0.77;;
33074;SDS011;19433;51.292;6.868;2022-09-01T09:49:28;1.83;;;0.87;;
33074;SDS011;19433;51.292;6.868;2022-09-01T09:54:27;0.83;;;0.80;;
33074;SDS011;19433;51.292;6.868;2022-09-01T09:57:27;1.70;;;0.90;;
33074;SDS011;19433;51.292;6.868;2022-09-01T09:59:47;2.37;;;0.80;;
33074;SDS011;19433;51.292;6.868;2022-09-01T10:04:50;0.70;;;0.70;;
33074;SDS011;19433;51.292;6.868;2022-09-01T10:07:33;0.80;;;0.80;;
33074;SDS011;19433;51.292;6.868;2022-09-01T10:10:01;1.47;;;0.80;;
33074;SDS011;19433;51.292;6.868;2022-09-01T10:12:29;1.23;;;0.80;;
33074;SDS011;19433;51.292;6.868;2022-09-01T10:15:05;0.70;;;0.70;;
33074;SDS011;19433;51.292;6.868;2022-09-01T10:17:37;1.53;;;0.70;;
33074;SDS011;19433;51.292;6.868;2022-09-01T10:22:42;0.80;;;0.80;;
33074;SDS011;19433;51.292;6.868;2022-09-01T10:25:10;1.80;;;0.80;;
33074;SDS011;19433;51.292;6.868;2022-09-01T10:27:41;0.80;;;0.80;;
33074;SDS011;19433;51.292;6.868;2022-09-01T10:30:12;0.83;;;0.83;;
33074;SDS011;19433;51.292;6.868;2022-09-01T10:32:41;1.37;;;0.70;;
33074;SDS011;19433;51.292;6.868;2022-09-01T10:35:11;0.70;;;0.70;;
33074;SDS011;19433;51.292;6.868;2022-09-01T10:37:43;0.80;;;0.80;;
33074;SDS011;19433;51.292;6.868;2022-09-01T10:42:52;0.80;;;0.80;;
33074;SDS011;19433;51.292;6.868;2022-09-01T10:48:43;1.47;;;0.87;;
33074;SDS011;19433;51.292;6.868;2022-09-01T10:50:47;2.57;;;0.90;;
33074;SDS011;19433;51.292;6.868;2022-09-01T10:53:57;0.90;;;0.90;;
33074;SDS011;19433;51.292;6.868;2022-09-01T10:56:22;2.40;;;1.07;;
33074;SDS011;19433;51.292;6.868;2022-09-01T11:09:44;1.63;;;1.17;;
33074;SDS011;19433;51.292;6.868;2022-09-01T11:17:24;1.70;;;0.80;;
33074;SDS011;19433;51.292;6.868;2022-09-01T11:22:45;1.13;;;0.70;;
33074;SDS011;19433;51.292;6.868;2022-09-01T11:27:58;0.70;;;0.70;;
33074;SDS011;19433;51.292;6.868;2022-09-01T11:30:31;1.83;;;0.90;;
33074;SDS011;19433;51.292;6.868;2022-09-01T11:33:03;1.00;;;0.80;;
33074;SDS011;19433;51.292;6.868;2022-09-01T11:35:36;0.80;;;0.80;;
33074;SDS011;19433;51.292;6.868;2022-09-01T11:38:02;0.90;;;0.80;;
33074;SDS011;19433;51.292;6.868;2022-09-01T11:40:32;0.67;;;0.67;;
33074;SDS011;19433;51.292;6.868;2022-09-01T11:43:00;0.80;;;0.80;;
33074;SDS011;19433;51.292;6.868;2022-09-01T11:45:30;0.97;;;0.90;;
33074;SDS011;19433;51.292;6.868;2022-09-01T11:48:01;1.60;;;0.93;;
33074;SDS011;19433;51.292;6.868;2022-09-01T11:50:32;0.73;;;0.73;;
33074;SDS011;19433;51.292;6.868;2022-09-01T11:53:02;2.40;;;0.80;;
33074;SDS011;19433;51.292;6.868;2022-09-01T11:55:37;1.10;;;0.97;;
33074;SDS011;19433;51.292;6.868;2022-09-01T11:58:27;1.17;;;1.17;;
33074;SDS011;19433;51.292;6.868;2022-09-01T12:01:09;1.13;;;0.87;;
33074;SDS011;19433;51.292;6.868;2022-09-01T12:03:37;0.90;;;0.90;;
33074;SDS011;19433;51.292;6.868;2022-09-01T12:06:03;0.70;;;0.70;;
33074;SDS011;19433;51.292;6.868;2022-09-01T12:08:34;1.23;;;1.13;;
33074;SDS011;19433;51.292;6.868;2022-09-01T12:11:12;1.43;;;0.80;;
33074;SDS011;19433;51.292;6.868;2022-09-01T12:13:53;1.00;;;1.00;;
33074;SDS011;19433;51.292;6.868;2022-09-01T12:16:21;1.23;;;1.03;;
33074;SDS011;19433;51.292;6.868;2022-09-01T12:18:47;1.03;;;0.80;;
33074;SDS011;19433;51.292;6.868;2022-09-01T12:21:22;0.90;;;0.90;;
33074;SDS011;19433;51.292;6.868;2022-09-01T12:23:50;0.80;;;0.80;;
33074;SDS011;19433;51.292;6.868;2022-09-01T12:26:18;0.70;;;0.70;;
33074;SDS011;19433;51.292;6.868;2022-09-01T12:28:48;0.90;;;0.90;;
33074;SDS011;19433;51.292;6.868;2022-09-01T12:31:16;1.90;;;1.10;;
33074;SDS011;19433;51.292;6.868;2022-09-01T12:33:44;0.90;;;0.90;;
33074;SDS011;19433;51.292;6.868;2022-09-01T12:38:52;0.80;;;0.80;;
33074;SDS011;19433;51.292;6.868;2022-09-01T12:47:08;0.90;;;0.90;;
33074;SDS011;19433;51.292;6.868;2022-09-01T12:54:49;0.93;;;0.93;;
33074;SDS011;19433;51.292;6.868;2022-09-01T12:57:25;0.77;;;0.77;;
33074;SDS011;19433;51.292;6.868;2022-09-01T13:02:32;2.00;;;0.70;;
33074;SDS011;19433;51.292;6.868;2022-09-01T13:07:48;1.57;;;0.80;;
33074;SDS011;19433;51.292;6.868;2022-09-01T13:10:13;1.07;;;1.07;;
33074;SDS011;19433;51.292;6.868;2022-09-01T13:12:42;1.00;;;0.73;;
33074;SDS011;19433;51.292;6.868;2022-09-01T13:15:09;1.13;;;1.00;;
33074;SDS011;19433;51.292;6.868;2022-09-01T13:17:35;0.93;;;0.93;;
33074;SDS011;19433;51.292;6.868;2022-09-01T13:20:02;0.93;;;0.83;;
33074;SDS011;19433;51.292;6.868;2022-09-01T13:22:32;1.20;;;1.10;;
33074;SDS011;19433;51.292;6.868;2022-09-01T13:24:59;1.00;;;1.00;;
33074;SDS011;19433;51.292;6.868;2022-09-01T13:27:24;2.10;;;1.00;;
33074;SDS011;19433;51.292;6.868;2022-09-01T13:29:51;1.07;;;0.80;;
33074;SDS011;19433;51.292;6.868;2022-09-01T13:32:16;1.60;;;0.80;;
33074;SDS011;19433;51.292;6.868;2022-09-01T13:34:43;0.87;;;0.87;;
33074;SDS011;19433;51.292;6.868;2022-09-01T13:37:08;0.70;;;0.70;;
33074;SDS011;19433;51.292;6.868;2022-09-01T13:39:36;0.70;;;0.70;;
33074;SDS011;19433;51.292;6.868;2022-09-01T13:42:02;1.33;;;1.10;;
33074;SDS011;19433;51.292;6.868;2022-09-01T13:44:28;0.83;;;0.83;;
33074;SDS011;19433;51.292;6.868;2022-09-01T13:46:53;0.90;;;0.90;;
33074;SDS011;19433;51.292;6.868;2022-09-01T13:49:19;1.23;;;1.13;;
33074;SDS011;19433;51.292;6.868;2022-09-01T13:51:49;1.13;;;0.93;;
33074;SDS011;19433;51.292;6.868;2022-09-01T13:54:15;0.90;;;0.77;;
33074;SDS011;19433;51.292;6.868;2022-09-01T13:56:41;1.60;;;0.90;;
33074;SDS011;19433;51.292;6.868;2022-09-01T13:59:06;0.93;;;0.90;;
33074;SDS011;19433;51.292;6.868;2022-09-01T14:01:31;0.90;;;0.90;;
33074;SDS011;19433;51.292;6.868;2022-09-01T14:03:57;0.90;;;0.90;;
33074;SDS011;19433;51.292;6.868;2022-09-01T14:06:23;3.37;;;1.20;;
33074;SDS011;19433;51.292;6.868;2022-09-01T14:08:48;1.17;;;0.80;;
33074;SDS011;19433;51.292;6.868;2022-09-01T14:11:17;1.97;;;0.87;;
33074;SDS011;19433;51.292;6.868;2022-09-01T14:13:44;1.50;;;0.90;;
33074;SDS011;19433;51.292;6.868;2022-09-01T14:16:10;0.90;;;0.90;;
33074;SDS011;19433;51.292;6.868;2022-09-01T14:18:37;0.80;;;0.80;;
33074;SDS011;19433;51.292;6.868;2022-09-01T14:21:02;1.10;;;1.00;;
33074;SDS011;19433;51.292;6.868;2022-09-01T14:23:28;0.97;;;0.90;;
33074;SDS011;19433;51.292;6.868;2022-09-01T14:25:53;1.37;;;1.00;;
33074;SDS011;19433;51.292;6.868;2022-09-01T14:28:20;1.10;;;1.10;;
33074;SDS011;19433;51.292;6.868;2022-09-01T14:30:47;1.57;;;1.03;;
33074;SDS011;19433;51.292;6.868;2022-09-01T14:33:13;1.33;;;1.23;;
33074;SDS011;19433;51.292;6.868;2022-09-01T14:35:41;1.50;;;1.17;;
33074;SDS011;19433;51.292;6.868;2022-09-01T14:38:09;1.83;;;1.20;;
33074;SDS011;19433;51.292;6.868;2022-09-01T14:40:36;6.10;;;1.70;;
33074;SDS011;19433;51.292;6.868;2022-09-01T14:43:03;0.90;;;0.90;;
33074;SDS011;19433;51.292;6.868;2022-09-01T14:45:38;0.80;;;0.80;;
33074;SDS011;19433;51.292;6.868;2022-09-01T14:48:04;0.70;;;0.70;;
33074;SDS011;19433;51.292;6.868;2022-09-01T14:50:32;1.20;;;1.07;;
33074;SDS011;19433;51.292;6.868;2022-09-01T14:53:04;1.40;;;1.23;;
33074;SDS011;19433;51.292;6.868;2022-09-01T14:55:30;2.20;;;1.00;;
33074;SDS011;19433;51.292;6.868;2022-09-01T14:57:56;1.00;;;1.00;;
33074;SDS011;19433;51.292;6.868;2022-09-01T15:00:23;1.00;;;1.00;;
33074;SDS011;19433;51.292;6.868;2022-09-01T15:02:54;1.33;;;1.23;;
33074;SDS011;19433;51.292;6.868;2022-09-01T15:05:21;1.07;;;0.97;;
33074;SDS011;19433;51.292;6.868;2022-09-01T15:07:47;1.00;;;1.00;;
33074;SDS011;19433;51.292;6.868;2022-09-01T15:10:14;1.23;;;0.97;;
33074;SDS011;19433;51.292;6.868;2022-09-01T15:12:44;2.17;;;0.93;;
33074;SDS011;19433;51.292;6.868;2022-09-01T15:15:10;0.90;;;0.90;;
33074;SDS011;19433;51.292;6.868;2022-09-01T15:17:35;4.50;;;1.73;;
33074;SDS011;19433;51.292;6.868;2022-09-01T15:20:01;1.47;;;0.70;;
33074;SDS011;19433;51.292;6.868;2022-09-01T15:22:47;1.73;;;0.97;;
33074;SDS011;19433;51.292;6.868;2022-09-01T15:25:14;1.43;;;0.90;;
33074;SDS011;19433;51.292;6.868;2022-09-01T15:27:40;0.80;;;0.80;;
33074;SDS011;19433;51.292;6.868;2022-09-01T15:30:05;1.43;;;0.80;;
33074;SDS011;19433;51.292;6.868;2022-09-01T15:32:38;3.53;;;1.03;;
33074;SDS011;19433;51.292;6.868;2022-09-01T15:35:04;1.07;;;1.07;;
33074;SDS011;19433;51.292;6.868;2022-09-01T15:37:30;1.03;;;1.00;;
33074;SDS011;19433;51.292;6.868;2022-09-01T15:39:55;1.07;;;1.00;;
33074;SDS011;19433;51.292;6.868;2022-09-01T15:42:20;0.90;;;0.90;;
33074;SDS011;19433;51.292;6.868;2022-09-01T15:44:45;0.87;;;0.83;;
33074;SDS011;19433;51.292;6.868;2022-09-01T15:47:11;2.50;;;1.10;;
33074;SDS011;19433;51.292;6.868;2022-09-01T15:49:36;1.20;;;1.20;;
33074;SDS011;19433;51.292;6.868;2022-09-01T15:52:02;1.50;;;1.00;;
33074;SDS011;19433;51.292;6.868;2022-09-01T15:54:27;1.43;;;1.23;;
33074;SDS011;19433;51.292;6.868;2022-09-01T15:56:52;1.17;;;1.07;;
33074;SDS011;19433;51.292;6.868;2022-09-01T15:59:18;1.10;;;0.97;;
33074;SDS011;19433;51.292;6.868;2022-09-01T16:01:44;4.10;;;1.10;;
33074;SDS011;19433;51.292;6.868;2022-09-01T16:04:11;0.93;;;0.83;;
33074;SDS011;19433;51.292;6.868;2022-09-01T16:06:41;1.23;;;0.80;;
33074;SDS011;19433;51.292;6.868;2022-09-01T16:09:08;1.37;;;1.27;;
33074;SDS011;19433;51.292;6.868;2022-09-01T16:11:34;0.87;;;0.87;;
33074;SDS011;19433;51.292;6.868;2022-09-01T16:14:02;1.10;;;1.00;;
33074;SDS011;19433;51.292;6.868;2022-09-01T16:22:12;0.77;;;0.77;;